EHAK

A12-cpp Sea

A12-cpp Sea, The Netherlands
METAR EHAK 190725Z AUTO 36003KT 310V050 9999 NCD 16/13 Q1020 W///H///
Observed Flight Rules
Jul-19 @ 07:25 UTC (22 minutes ago) Visual Flight Rules
Wind Visibility Clouds
360° at 3 knots 10,000+ meters
  • Clear skies
Temperatures Readings
Current 16°C / 61°F
Dewpoint 13°C / 55°F
Humidity 83%
Altimeter 30.12" Hg
Pressure 1020 hPa
Elevation 50
METAR EHAK 190725Z AUTO 36003KT 310V050 9999 NCD 16/13 Q1020 W///H///
Observed Flight Rules
Jul-19 @ 07:25 UTC
(22 minutes ago)
VFR
Wind Visibility
360° at 3 knots 10,000+ meters
Clouds
  • Clear skies
Temperature Dewpoint
16°C / 61°F 13°C / 55°F
Humidity Altimeter Pressure
83% 30.12" Hg 1020 hPa